Oak Ridge, TN

10:43 PM EST on March 03, 2015 (GMT -0500)
Eyman Osage Rd | Change Station
CLOSE
Current Station
Personal Weather Station
Location: Oak Ridge, TN
Elevation: 1109 ft
Nearby Weather Stations
Active Advisory: Winter Storm Watch

Elev 1109 ft 36.03 °N, 84.26 °W | Updated 7 minutes ago

Overcast
Overcast
51.4 °F
Feels Like 51.4 °F
N
3.7
Wind Variable Wind from WNW

Today
High -- | Low -- °F
--% Chance of Precip.
Yesterday
High -- | Low -- °F
Precip. -- in
7:04 AM 6:33 PM
Waxing Gibbous, 98% visible
Pressure 30.02 in
Visibility 5.0 miles
Clouds Overcast 400 ft
Dew Point 51 °F
Humidity 99%
Rainfall 0.46 in
Snow Depth Not available.
UV 0 out of 12
Pollen .60 out of 12
Air Quality Not available.
Flu Activity Not available.
METAR KOQT 040253Z AUTO 00000KT 5SM BR OVC004 11/11 A3001 RMK AO2 SLP166 60028 T01110106 58012

More Conditions Fewer Conditions

Pressure 30.02 in
Visibility 5.0 miles
Clouds Overcast 400 ft
Dew Point 51 °F
Humidity 99%
Rainfall 0.46 in
Snow Depth Not available.
UV 0 out of 12
Pollen .60 out of 12
Air Quality Not available.
Flu Activity Not available.
METAR KOQT 040253Z AUTO 00000KT 5SM BR OVC004 11/11 A3001 RMK AO2 SLP166 60028 T01110106 58012

More Conditions Fewer Conditions

10-Day Weather Forecast

Almanac

Astronomy

Mar. 03, 2015 Rise Set
Actual Time
Civil Twilight
Nautical Twilight
Astronomical Twilight
Moon
Length of Visible Light
Length of Day
Tomorrow will be .
, % of the Moon is Illuminated

Today's Extremes

State Highs State Lows

Community

WunderPhotos

Upload Photos

1,802,379 photos uploaded!

WunderBlogs® & News

Nearby

Air Quality

  Air Quality AQ Index Pollutant
Not available.

Snow Depth

Station Depth Elevation

Earthquake Activity

City Distance Mag. Time & Date
Minimum magnitude displayed is 2.5.

Coastal Water Temperatures

Place Temperature

Nearby Weather Stations

Winter Storm Watch
Statement as of 10:42 PM EST on March 03, 2015

... Winter Storm Watch remains in effect from late Wednesday night
through Thursday afternoon...

* event... wintry mix of freezing rain changing to sleet and snow.

* Timing... beginning around midnight Wednesday night and
continuing until 4 PM EST Thursday afternoon.

* Impacts... freezing rain accumulations a quarter of an inch or
less... changing over to sleet and snow with accumulations
generally 2 inches or less.

Precautionary/preparedness actions...

A Winter Storm Watch means there is a potential for significant
snow... sleet... and/or ice accumulations. Future driving
conditions may become hazardous... so continue to monitor the
latest forecasts.